Time;durP1;ratioP1;P1;durP2;ratioP2;P2;SDS_P1;SDS_P2;PMS_P1;PMS_P2;Temp;Humidity;BMP_temperature;BMP_pressure;BME280_temperature;BME280_humidity;BME280_pressure;Samples;Min_cycle;Max_cycle;Signal;HPM_P1;HPM_P2
2022/07/19 00:02:12;;;;;;;8.00;3.50;;;;;;;15.58;65.66;99027.61;106462;1277;24295;-84
2022/07/19 00:04:39;;;;;;;6.60;3.30;;;;;;;15.62;65.78;99022.98;106161;1277;137303;-84
2022/07/19 00:07:06;;;;;;;5.50;3.40;;;;;;;15.64;66.15;99026.61;106076;1280;25356;-85
2022/07/19 00:09:33;;;;;;;8.60;4.20;;;;;;;15.65;66.28;99019.58;106407;1277;137799;-85
2022/07/19 00:12:00;;;;;;;5.70;3.40;;;;;;;15.66;65.90;99015.46;106213;1278;25254;-85
2022/07/19 00:14:30;;;;;;;8.40;3.70;;;;;;;15.65;66.02;99008.88;106209;1277;137694;-85
2022/07/19 00:17:00;;;;;;;5.90;3.10;;;;;;;15.62;66.17;99007.81;106554;1277;22560;-84
2022/07/19 00:19:32;;;;;;;6.50;2.90;;;;;;;15.52;66.20;99006.26;106028;1277;22541;-84
2022/07/19 00:22:00;;;;;;;7.70;3.10;;;;;;;15.39;66.58;99007.70;106098;1277;137967;-83
2022/07/19 00:24:30;;;;;;;8.30;3.40;;;;;;;15.33;66.96;99007.89;106149;1277;22541;-84
2022/07/19 00:26:56;;;;;;;6.80;3.40;;;;;;;15.30;67.26;99010.94;106481;1277;138020;-83
2022/07/19 00:29:24;;;;;;;4.40;3.10;;;;;;;15.28;67.39;99017.11;106324;1277;22551;-83
2022/07/19 00:32:05;;;;;;;6.80;3.70;;;;;;;15.16;67.41;99018.45;106274;1277;25417;-84
2022/07/19 00:34:32;;;;;;;6.70;3.40;;;;;;;15.02;67.96;99014.81;106561;1277;137316;-84
2022/07/19 00:36:59;;;;;;;5.50;3.30;;;;;;;14.94;68.59;99013.65;105974;1278;22535;-83
2022/07/19 00:39:26;;;;;;;7.30;3.60;;;;;;;14.91;68.83;99017.61;105853;1277;137619;-83
2022/07/19 00:41:53;;;;;;;5.40;3.10;;;;;;;14.90;68.84;99017.94;106582;1276;24372;-83
2022/07/19 00:44:22;;;;;;;5.80;3.60;;;;;;;14.89;68.53;99018.30;106297;1277;26483;-83
2022/07/19 00:46:49;;;;;;;9.80;4.10;;;;;;;14.85;68.60;99020.69;106294;1277;23220;-83
2022/07/19 00:49:16;;;;;;;7.40;3.70;;;;;;;14.84;68.71;99021.56;106497;1277;22659;-84
2022/07/19 00:51:45;;;;;;;6.00;3.70;;;;;;;14.83;68.41;99024.01;106184;1277;137639;-85
2022/07/19 00:54:15;;;;;;;6.80;3.60;;;;;;;14.80;68.68;99023.48;106717;1277;22752;-85
2022/07/19 00:56:44;;;;;;;5.80;3.40;;;;;;;14.76;68.67;99020.92;106128;1277;137920;-84
2022/07/19 00:59:12;;;;;;;8.20;3.10;;;;;;;14.76;68.70;99020.96;106151;1277;22551;-87
2022/07/19 01:01:55;;;;;;;7.30;3.30;;;;;;;14.78;68.51;99020.73;106168;1277;22711;-85
2022/07/19 01:04:22;;;;;;;5.40;3.20;;;;;;;14.82;68.50;99018.63;106291;1277;137555;-84
2022/07/19 01:06:49;;;;;;;6.00;3.20;;;;;;;14.86;68.41;99018.99;106332;1277;25658;-84
2022/07/19 01:09:17;;;;;;;7.90;3.60;;;;;;;14.87;68.44;99017.73;106228;1277;137562;-85
2022/07/19 01:11:44;;;;;;;9.10;3.70;;;;;;;14.87;68.30;99021.85;106663;1277;24230;-84
2022/07/19 01:14:16;;;;;;;8.20;3.50;;;;;;;14.86;68.25;99020.53;108966;1275;22695;-84
2022/07/19 01:16:47;;;;;;;8.60;3.50;;;;;;;14.85;67.97;99022.11;108721;1277;136448;-84
2022/07/19 01:19:26;;;;;;;7.10;3.30;;;;;;;14.88;67.94;99023.89;108312;1277;22474;-84
2022/07/19 01:21:53;;;;;;;6.30;3.30;;;;;;;14.90;68.31;99025.56;107110;1277;138631;-84
2022/07/19 01:24:20;;;;;;;8.10;3.60;;;;;;;14.92;68.70;99028.27;106614;1277;22570;-84
2022/07/19 01:26:47;;;;;;;6.40;3.70;;;;;;;14.93;68.58;99024.05;106257;1278;138473;-84
2022/07/19 01:29:18;;;;;;;7.10;3.20;;;;;;;14.95;68.19;99020.23;106412;1277;22837;-85
2022/07/19 01:31:59;;;;;;;5.60;3.40;;;;;;;14.96;68.24;99017.67;106374;1277;23930;-85
2022/07/19 01:34:28;;;;;;;6.80;3.70;;;;;;;14.97;68.12;99019.27;106310;1277;137485;-84
2022/07/19 01:36:57;;;;;;;5.60;3.30;;;;;;;14.98;67.92;99017.30;106489;1277;22560;-84
2022/07/19 01:39:24;;;;;;;5.80;3.30;;;;;;;14.99;68.01;99013.36;106543;1277;137727;-85
2022/07/19 01:42:11;;;;;;;11.60;3.90;;;;;;;15.00;67.75;99012.61;106335;1278;22541;-85
2022/07/19 01:44:38;;;;;;;4.80;3.00;;;;;;;15.04;67.89;99011.97;106405;1277;138149;-85
2022/07/19 01:47:08;;;;;;;9.90;4.00;;;;;;;15.09;68.00;99010.31;106397;1277;22757;-86
2022/07/19 01:49:35;;;;;;;7.30;3.40;;;;;;;15.11;68.04;99007.70;106441;1277;22551;-85
2022/07/19 01:52:02;;;;;;;8.90;3.80;;;;;;;15.14;68.09;99006.64;106259;1277;137611;-80
2022/07/19 01:54:29;;;;;;;7.30;3.30;;;;;;;15.16;67.91;99001.79;106295;1277;24080;-83
2022/07/19 01:56:56;;;;;;;7.60;3.40;;;;;;;15.19;67.75;99001.73;106105;1277;137740;-83
2022/07/19 01:59:25;;;;;;;7.70;3.80;;;;;;;15.22;67.58;99000.83;106371;1277;25885;-82
2022/07/19 02:01:54;;;;;;;9.10;3.40;;;;;;;15.24;68.19;99005.08;106367;1277;25525;-82
2022/07/19 02:04:21;;;;;;;7.20;3.10;;;;;;;15.25;68.06;99007.72;106170;1277;138255;-83
2022/07/19 02:06:52;;;;;;;7.00;3.50;;;;;;;15.26;67.90;99005.36;106249;1277;22546;-83
2022/07/19 02:09:19;;;;;;;8.00;3.50;;;;;;;15.29;67.77;99002.36;106389;1277;137669;-83
2022/07/19 02:11:47;;;;;;;5.20;3.10;;;;;;;15.33;67.73;99003.44;106417;1277;22676;-83
2022/07/19 02:14:15;;;;;;;8.50;3.70;;;;;;;15.36;67.70;99000.83;106342;1277;22614;-83
2022/07/19 02:16:43;;;;;;;6.30;3.50;;;;;;;15.38;67.83;98998.48;106029;1277;137657;-83
2022/07/19 02:19:11;;;;;;;4.90;3.30;;;;;;;15.40;67.92;99003.11;106334;1277;22616;-83
2022/07/19 02:21:38;;;;;;;6.30;3.00;;;;;;;15.43;67.68;99004.44;106402;1277;137726;-83
2022/07/19 02:24:07;;;;;;;5.90;3.50;;;;;;;15.44;68.31;99001.60;106238;1277;22615;-83
2022/07/19 02:26:35;;;;;;;6.80;3.60;;;;;;;15.40;68.89;99005.69;106231;1278;137593;-83
2022/07/19 02:29:08;;;;;;;16.60;3.60;;;;;;;15.38;68.32;99008.02;106612;1277;25352;-83
2022/07/19 02:31:35;;;;;;;4.10;2.70;;;;;;;15.38;68.02;99010.67;106449;1276;22620;-83
2022/07/19 02:34:04;;;;;;;4.80;3.00;;;;;;;15.40;67.93;99013.20;106259;1278;137413;-83
2022/07/19 02:36:31;;;;;;;5.00;3.00;;;;;;;15.42;67.90;99012.23;106394;1277;22580;-83
2022/07/19 02:38:59;;;;;;;5.60;3.00;;;;;;;15.46;67.70;99012.70;106296;1277;137736;-83
2022/07/19 02:41:26;;;;;;;6.50;3.30;;;;;;;15.49;67.35;99014.42;106554;1277;23312;-83
2022/07/19 02:43:53;;;;;;;6.10;2.90;;;;;;;15.52;67.00;99013.90;106524;1277;25372;-83
2022/07/19 02:46:22;;;;;;;3.80;2.50;;;;;;;15.54;66.90;99018.96;106441;1278;138069;-84
2022/07/19 02:48:49;;;;;;;5.20;2.80;;;;;;;15.55;66.78;99015.13;106373;1277;22689;-82
2022/07/19 02:51:17;;;;;;;5.80;3.00;;;;;;;15.56;66.67;99015.08;106594;1277;137846;-83
2022/07/19 02:53:43;;;;;;;5.20;2.70;;;;;;;15.58;66.75;99013.05;106503;1277;25307;-83
2022/07/19 02:56:10;;;;;;;6.00;3.20;;;;;;;15.58;66.95;99010.85;106544;1277;22556;-83
2022/07/19 02:58:40;;;;;;;4.90;2.80;;;;;;;15.60;67.27;99013.66;106611;1277;139052;-83
2022/07/19 03:01:07;;;;;;;4.90;3.10;;;;;;;15.63;67.59;99012.65;106363;1277;22532;-83
2022/07/19 03:03:44;;;;;;;5.60;3.20;;;;;;;15.66;67.87;99013.27;106450;1277;138000;-83
2022/07/19 03:06:14;;;;;;;6.80;3.40;;;;;;;15.69;68.47;99015.61;106414;1277;24335;-83
2022/07/19 03:08:55;;;;;;;7.20;3.90;;;;;;;15.69;68.86;99014.34;106860;1277;137584;-83
2022/07/19 03:11:22;;;;;;;6.20;3.40;;;;;;;15.67;69.11;99014.00;106563;1277;22534;-83
2022/07/19 03:13:49;;;;;;;6.50;3.20;;;;;;;15.65;69.04;99015.36;106806;1276;25316;-83
2022/07/19 03:16:21;;;;;;;8.70;3.50;;;;;;;15.64;69.13;99015.30;106565;1277;137516;-83
2022/07/19 03:18:53;;;;;;;5.30;3.30;;;;;;;15.65;69.64;99009.92;106498;1278;22576;-83
2022/07/19 03:21:20;;;;;;;5.70;3.10;;;;;;;15.67;69.68;99013.78;106291;1278;138355;-83
2022/07/19 03:23:47;;;;;;;5.30;3.50;;;;;;;15.71;69.70;99015.73;106771;1277;23380;-83
2022/07/19 03:26:14;;;;;;;5.00;3.20;;;;;;;15.73;69.65;99017.94;106372;1278;25256;-83
2022/07/19 03:28:43;;;;;;;6.80;3.50;;;;;;;15.76;69.60;99019.30;106467;1277;137505;-83
2022/07/19 03:31:10;;;;;;;5.80;3.20;;;;;;;15.78;69.16;99025.91;106608;1277;22603;-82
2022/07/19 03:33:37;;;;;;;7.40;3.90;;;;;;;15.77;69.26;99027.77;106713;1277;137481;-83
2022/07/19 03:36:21;;;;;;;9.20;3.70;;;;;;;15.73;68.94;99032.77;106596;1277;22570;-82
2022/07/19 03:38:48;;;;;;;6.60;3.70;;;;;;;15.69;68.60;99034.27;106472;1276;138341;-83
2022/07/19 03:41:18;;;;;;;7.50;3.50;;;;;;;15.65;68.45;99032.21;106507;1277;22540;-83
2022/07/19 03:43:45;;;;;;;4.30;3.20;;;;;;;15.65;68.53;99033.76;106700;1278;25560;-83
2022/07/19 03:46:12;;;;;;;6.20;3.40;;;;;;;15.67;68.62;99030.80;106240;1277;137410;-82
2022/07/19 03:48:44;;;;;;;7.80;4.30;;;;;;;15.69;68.77;99030.05;106465;1277;22679;-83
2022/07/19 03:51:24;;;;;;;8.60;3.70;;;;;;;15.72;69.00;99028.20;106545;1277;137378;-82
2022/07/19 03:53:52;;;;;;;6.10;3.80;;;;;;;15.76;69.13;99030.83;106593;1277;22835;-82
2022/07/19 03:56:33;;;;;;;5.80;3.70;;;;;;;15.80;69.00;99031.52;106654;1277;23287;-82
2022/07/19 03:59:04;;;;;;;7.60;3.80;;;;;;;15.85;68.80;99034.14;106667;1277;22274;-82
2022/07/19 04:01:49;;;;;;;6.60;3.50;;;;;;;15.90;68.64;99032.41;106685;1277;22584;-83
2022/07/19 04:04:19;;;;;;;8.90;4.30;;;;;;;15.96;68.70;99032.98;106538;1278;137688;-83
2022/07/19 04:06:46;;;;;;;6.00;3.70;;;;;;;15.98;68.30;99032.02;106425;1278;22671;-83
2022/07/19 04:09:13;;;;;;;5.50;3.70;;;;;;;16.00;68.22;99040.10;106318;1277;137640;-82
2022/07/19 04:11:40;;;;;;;8.50;3.90;;;;;;;16.00;67.94;99038.52;106550;1277;24517;-82
2022/07/19 04:14:07;;;;;;;5.80;3.60;;;;;;;15.99;68.07;99042.23;106807;1277;22532;-83
2022/07/19 04:16:48;;;;;;;7.70;4.60;;;;;;;15.97;68.33;99042.39;106812;1277;137671;-83
2022/07/19 04:19:15;;;;;;;7.40;3.60;;;;;;;15.95;67.98;99044.58;106481;1277;22523;-82
2022/07/19 04:21:42;;;;;;;7.40;3.50;;;;;;;15.94;67.99;99047.31;106472;1277;138019;-82
2022/07/19 04:24:09;;;;;;;8.30;4.00;;;;;;;15.95;68.07;99047.65;106441;1277;25446;-82
2022/07/19 04:26:36;;;;;;;7.20;3.90;;;;;;;15.97;67.93;99049.98;106773;1277;138479;-82
2022/07/19 04:29:04;;;;;;;10.30;3.70;;;;;;;15.97;68.05;99052.45;106837;1277;22931;-83
2022/07/19 04:31:31;;;;;;;9.30;3.80;;;;;;;15.99;68.21;99056.23;106485;1277;22574;-82
2022/07/19 04:33:58;;;;;;;5.80;4.00;;;;;;;16.03;68.42;99061.16;106876;1277;137980;-83
2022/07/19 04:36:25;;;;;;;8.40;3.90;;;;;;;16.09;68.74;99062.63;106657;1277;25255;-83
2022/07/19 04:38:52;;;;;;;10.00;4.40;;;;;;;16.17;68.89;99059.09;106397;1277;137770;-83
2022/07/19 04:41:25;;;;;;;8.40;4.10;;;;;;;16.25;68.50;99058.96;107008;1277;23103;-83
2022/07/19 04:43:52;;;;;;;8.80;4.30;;;;;;;16.34;68.11;99059.83;106538;1277;22806;-83
2022/07/19 04:46:19;;;;;;;13.10;4.60;;;;;;;16.43;67.83;99056.62;106400;1277;137717;-83
2022/07/19 04:48:49;;;;;;;9.00;4.20;;;;;;;16.53;67.55;99055.30;106412;1275;22560;-82
2022/07/19 04:51:16;;;;;;;10.90;4.30;;;;;;;16.62;67.49;99052.34;106398;1277;137773;-83
2022/07/19 04:53:46;;;;;;;10.70;4.70;;;;;;;16.70;67.54;99054.73;106703;1277;22541;-83
2022/07/19 04:56:15;;;;;;;13.40;4.40;;;;;;;16.77;67.30;99061.08;106666;1277;22586;-83
2022/07/19 04:58:46;;;;;;;8.80;4.30;;;;;;;16.79;67.82;99061.32;106568;1277;137782;-83
2022/07/19 05:01:13;;;;;;;7.60;4.10;;;;;;;16.79;67.82;99054.83;106737;1277;24318;-83
2022/07/19 05:03:40;;;;;;;9.40;4.50;;;;;;;16.82;67.94;99053.46;106702;1277;138901;-83
2022/07/19 05:06:22;;;;;;;13.50;4.30;;;;;;;16.91;68.28;99050.31;106658;1277;24320;-82
2022/07/19 05:08:49;;;;;;;14.20;4.40;;;;;;;16.99;68.69;99047.96;106414;1277;138212;-82
2022/07/19 05:11:21;;;;;;;17.80;4.30;;;;;;;17.08;67.94;99044.34;106733;1277;25418;-83
2022/07/19 05:13:48;;;;;;;16.50;4.80;;;;;;;17.15;67.34;99047.16;106605;1277;24243;-83
2022/07/19 05:16:32;;;;;;;16.70;4.40;;;;;;;17.21;67.16;99049.36;106424;1277;137986;-83
2022/07/19 05:19:13;;;;;;;13.80;5.60;;;;;;;17.26;67.18;99046.50;106586;1277;22544;-82
2022/07/19 05:21:40;;;;;;;19.10;4.70;;;;;;;17.32;67.01;99046.45;106470;1277;137649;-82
2022/07/19 05:24:07;;;;;;;20.10;5.10;;;;;;;17.37;67.08;99047.48;106476;1277;22545;-82
2022/07/19 05:26:38;;;;;;;18.40;6.10;;;;;;;17.44;66.70;99048.88;106496;1277;138201;-82
2022/07/19 05:29:05;;;;;;;17.70;4.70;;;;;;;17.48;66.27;99043.48;106417;1277;25254;-82
2022/07/19 05:31:32;;;;;;;15.80;4.70;;;;;;;17.51;66.27;99042.87;106422;1277;24293;-82
2022/07/19 05:34:02;;;;;;;18.20;4.70;;;;;;;17.59;66.18;99042.59;106513;1277;137756;-82
2022/07/19 05:36:30;;;;;;;14.60;3.90;;;;;;;17.67;65.69;99045.94;106353;1277;24299;-82
2022/07/19 05:38:57;;;;;;;17.80;5.00;;;;;;;17.73;65.48;99044.39;106413;1277;159401;-82
2022/07/19 05:41:24;;;;;;;15.00;4.80;;;;;;;17.79;65.24;99041.89;106993;1277;25403;-82
2022/07/19 05:43:52;;;;;;;17.70;5.00;;;;;;;17.86;65.18;99043.89;106644;1278;25466;-82
2022/07/19 05:46:19;;;;;;;11.40;4.40;;;;;;;17.93;65.27;99042.29;106236;1277;137631;-82
2022/07/19 05:48:47;;;;;;;17.40;4.30;;;;;;;17.99;64.89;99043.10;106459;1276;22539;-82
2022/07/19 05:51:18;;;;;;;21.70;5.40;;;;;;;18.03;64.20;99046.84;106528;1277;137957;-82
2022/07/19 05:54:00;;;;;;;18.30;4.80;;;;;;;18.07;64.04;99041.09;106173;1277;25464;-82
2022/07/19 05:56:28;;;;;;;18.10;4.20;;;;;;;18.12;64.28;99039.98;106771;1277;22597;-82
2022/07/19 05:58:55;;;;;;;18.20;3.90;;;;;;;18.17;64.04;99037.86;106647;1277;137581;-79
2022/07/19 06:01:24;;;;;;;14.80;4.30;;;;;;;18.25;63.72;99037.13;106006;1277;22743;-82
2022/07/19 06:04:00;;;;;;;16.00;5.20;;;;;;;18.35;63.83;99038.91;105932;1277;137818;-82
2022/07/19 06:06:29;;;;;;;15.80;4.40;;;;;;;18.42;63.54;99034.14;106413;1277;23396;-84
2022/07/19 06:08:58;;;;;;;12.60;4.10;;;;;;;18.48;62.80;99035.48;106265;1277;137953;-81
2022/07/19 06:11:26;;;;;;;14.00;4.40;;;;;;;18.52;62.30;99031.99;106251;1277;22649;-82
2022/07/19 06:13:54;;;;;;;15.70;4.20;;;;;;;18.58;62.11;99033.94;106334;1277;24326;-81
2022/07/19 06:16:21;;;;;;;10.60;3.70;;;;;;;18.65;62.03;99027.17;106358;1277;138064;-82
2022/07/19 06:19:02;;;;;;;13.30;4.00;;;;;;;18.72;61.88;99028.18;106714;1276;22574;-79
2022/07/19 06:21:29;;;;;;;8.70;3.70;;;;;;;18.81;61.34;99027.31;106299;1277;137733;-79
2022/07/19 06:23:56;;;;;;;13.10;3.90;;;;;;;18.89;60.87;99023.64;106271;1276;22582;-79
2022/07/19 06:26:24;;;;;;;13.00;4.00;;;;;;;18.97;60.92;99025.35;106397;1277;24142;-79
2022/07/19 06:29:04;;;;;;;9.80;3.60;;;;;;;19.06;60.82;99024.30;106145;1277;137790;-78
2022/07/19 06:31:48;;;;;;;11.50;4.10;;;;;;;19.18;60.80;99021.95;106487;1277;22578;-79
2022/07/19 06:34:15;;;;;;;12.40;3.40;;;;;;;19.28;61.09;99025.46;106144;1277;137694;-79
2022/07/19 06:36:56;;;;;;;9.90;3.40;;;;;;;19.40;60.45;99022.15;106471;1277;23241;-80
2022/07/19 06:39:37;;;;;;;7.30;3.30;;;;;;;19.52;60.34;99021.34;106194;1277;137695;-78
2022/07/19 06:42:19;;;;;;;7.30;3.40;;;;;;;19.67;59.93;99024.84;106703;1277;25219;-79
2022/07/19 06:44:46;;;;;;;10.90;4.00;;;;;;;19.81;59.24;99019.54;106131;1277;137749;-83
2022/07/19 06:47:27;;;;;;;13.70;3.90;;;;;;;19.95;59.09;99018.34;106211;1280;23073;-83
2022/07/19 06:49:55;;;;;;;7.90;3.10;;;;;;;20.09;58.57;99022.99;107024;1277;22581;-80
2022/07/19 06:52:36;;;;;;;8.70;3.30;;;;;;;20.25;58.24;99024.91;106534;1277;137603;-80
2022/07/19 06:55:17;;;;;;;15.50;4.40;;;;;;;20.41;57.94;99026.33;106212;1277;22611;-81
2022/07/19 06:57:46;;;;;;;8.70;3.20;;;;;;;20.55;57.83;99023.98;106374;1277;138214;-81
2022/07/19 07:00:14;;;;;;;13.50;3.60;;;;;;;20.71;57.67;99022.45;106481;1277;22779;-82
2022/07/19 07:02:42;;;;;;;10.50;4.60;;;;;;;20.89;56.95;99022.20;106488;1276;137897;-81
2022/07/19 07:05:23;;;;;;;14.70;4.10;;;;;;;21.10;57.72;99018.95;106777;1277;25316;-81
2022/07/19 07:07:52;;;;;;;10.20;3.70;;;;;;;21.30;57.21;99014.16;107867;1277;22544;-81
2022/07/19 07:10:19;;;;;;;13.80;3.60;;;;;;;21.52;56.89;99014.92;107093;1277;137858;-82
2022/07/19 07:12:46;;;;;;;14.30;3.50;;;;;;;21.71;56.05;99016.56;107720;1277;25406;-82
2022/07/19 07:15:13;;;;;;;15.10;3.90;;;;;;;21.89;55.49;99017.23;106191;1276;138015;-83
2022/07/19 07:17:41;;;;;;;18.30;3.40;;;;;;;22.06;55.07;99012.14;106660;1277;22560;-83
2022/07/19 07:20:09;;;;;;;8.00;3.30;;;;;;;22.22;54.52;99011.05;106862;1277;24067;-82
2022/07/19 07:22:50;;;;;;;10.00;3.70;;;;;;;22.40;53.95;99006.90;106392;1277;137629;-83
2022/07/19 07:25:18;;;;;;;7.20;2.90;;;;;;;22.53;53.89;99008.45;106441;1277;25483;-82
2022/07/19 07:27:45;;;;;;;7.00;3.40;;;;;;;22.64;53.58;99008.55;106691;1277;138448;-82
2022/07/19 07:30:26;;;;;;;11.30;3.60;;;;;;;22.72;53.18;99011.08;106193;1277;23312;-82
2022/07/19 07:33:07;;;;;;;11.00;3.20;;;;;;;22.85;53.28;99017.17;106133;1277;137940;-83
2022/07/19 07:35:34;;;;;;;7.00;3.40;;;;;;;22.98;53.24;99015.43;106746;1277;25353;-82
2022/07/19 07:38:01;;;;;;;16.70;4.00;;;;;;;23.07;52.20;99012.90;106499;1277;25399;-82
2022/07/19 07:40:42;;;;;;;18.50;3.60;;;;;;;23.18;52.22;99011.77;106928;1277;138194;-83
2022/07/19 07:43:09;;;;;;;10.00;4.40;;;;;;;23.31;52.45;99015.72;106406;1277;22604;-79
2022/07/19 07:45:36;;;;;;;9.00;3.50;;;;;;;23.48;52.77;99014.03;106225;1277;492992;-80
2022/07/19 07:48:03;;;;;;;13.30;3.50;;;;;;;23.58;52.07;99011.39;106917;1277;24377;-81
2022/07/19 07:50:31;;;;;;;10.10;4.10;;;;;;;23.70;51.97;99012.73;106258;1278;25376;-81
2022/07/19 07:52:58;;;;;;;19.60;3.80;;;;;;;23.77;51.51;99010.70;106472;1277;139214;-81
2022/07/19 07:55:25;;;;;;;23.30;4.20;;;;;;;23.82;51.74;99015.38;106435;1277;22611;-81
2022/07/19 07:57:53;;;;;;;25.40;4.20;;;;;;;23.93;51.98;99017.60;106479;1277;138295;-81
2022/07/19 08:00:35;;;;;;;12.80;3.50;;;;;;;24.09;51.70;99019.50;106574;1276;24325;-79
2022/07/19 08:03:17;;;;;;;8.70;3.90;;;;;;;24.23;50.37;99017.59;106120;1277;138369;-81
2022/07/19 08:05:47;;;;;;;8.30;3.00;;;;;;;24.33;50.10;99018.83;106320;1277;22549;-81
2022/07/19 08:08:15;;;;;;;6.50;3.70;;;;;;;24.43;49.91;99016.54;106650;1277;25302;-81
2022/07/19 08:10:43;;;;;;;9.90;3.70;;;;;;;24.55;49.91;99014.13;106149;1277;137461;-81
2022/07/19 08:13:10;;;;;;;10.40;3.90;;;;;;;24.67;49.65;99011.21;106140;1277;25360;-82
2022/07/19 08:15:38;;;;;;;6.90;3.40;;;;;;;24.80;48.97;99004.17;106535;1276;138043;-82
2022/07/19 08:18:05;;;;;;;11.90;3.90;;;;;;;24.92;49.10;99006.31;106256;1277;22537;-82
2022/07/19 08:20:32;;;;;;;8.20;3.40;;;;;;;25.08;48.81;99003.38;106351;1277;25296;-82
2022/07/19 08:22:59;;;;;;;6.80;3.20;;;;;;;25.28;48.39;99001.02;106681;1276;137325;-81
2022/07/19 08:25:40;;;;;;;8.10;3.90;;;;;;;25.54;47.59;99000.35;106250;1277;22631;-81
2022/07/19 08:28:08;;;;;;;9.80;3.20;;;;;;;25.80;47.02;98997.08;106313;1277;137410;-80
2022/07/19 08:30:48;;;;;;;5.80;2.90;;;;;;;25.96;45.13;99001.39;106135;1277;22999;-81
2022/07/19 08:33:16;;;;;;;6.10;3.20;;;;;;;26.01;44.59;98995.23;106215;1277;138013;-81
2022/07/19 08:35:43;;;;;;;7.40;2.90;;;;;;;26.11;44.86;98996.53;106697;1277;23292;-81
2022/07/19 08:38:10;;;;;;;8.40;2.80;;;;;;;26.21;44.67;98997.34;106430;1276;22550;-81
2022/07/19 08:40:42;;;;;;;9.30;3.30;;;;;;;26.30;44.81;98995.95;106236;1277;137577;-80
2022/07/19 08:43:22;;;;;;;8.30;3.20;;;;;;;26.40;44.43;99002.16;106684;1277;24296;-81
2022/07/19 08:45:50;;;;;;;6.40;2.60;;;;;;;26.50;43.35;99001.21;106190;1277;137691;-81
2022/07/19 08:48:19;;;;;;;7.90;3.00;;;;;;;26.62;42.56;99002.08;106676;1277;22545;-79
2022/07/19 08:50:47;;;;;;;8.70;2.50;;;;;;;26.77;42.36;99002.90;106712;1277;137591;-84
2022/07/19 08:53:18;;;;;;;;;;;;;;;26.85;40.75;99003.21;106360;1277;22529;-86
2022/07/19 08:55:53;;;;;;;8.50;1.70;;;;;;;26.96;39.09;99001.73;106602;1277;22595;-87
2022/07/19 08:58:42;;;;;;;9.00;2.10;;;;;;;27.17;37.67;99000.06;106813;1276;137528;-87
2022/07/19 09:01:15;;;;;;;5.80;1.60;;;;;;;27.37;36.47;98991.75;106879;1277;22639;-91
2022/07/19 09:04:13;;;;;;;5.80;1.60;;;;;;;27.50;35.83;98990.23;106245;1277;137434;-90
2022/07/19 09:06:50;;;;;;;5.20;1.60;;;;;;;27.70;36.04;98987.02;106461;1277;24364;-87
2022/07/19 09:09:30;;;;;;;5.40;2.00;;;;;;;27.88;35.89;98984.69;106626;1277;137612;-83
2022/07/19 09:12:02;;;;;;;11.10;1.60;;;;;;;28.00;35.82;98981.68;106434;1277;23376;-86
2022/07/19 09:14:39;;;;;;;5.10;1.50;;;;;;;28.05;35.35;98986.14;106245;1277;22580;-83
2022/07/19 09:17:19;;;;;;;4.40;1.50;;;;;;;28.02;34.30;98983.67;106683;1277;30283;-82
2022/07/19 09:19:52;;;;;;;;;;;;;;;28.02;34.46;98982.70;106580;1277;30704;-83
2022/07/19 09:22:20;;;;;;;4.40;1.50;;;;;;;28.03;34.24;98980.64;106380;1277;124074;-83
2022/07/19 09:25:03;;;;;;;6.90;1.60;;;;;;;28.07;34.27;98981.98;106591;1276;22538;-82
2022/07/19 09:27:30;;;;;;;3.30;1.20;;;;;;;28.14;33.50;98982.61;106991;1277;137954;-87
2022/07/19 09:30:00;;;;;;;;;;;;;;;28.29;32.54;98982.86;106178;1277;22731;-91
2022/07/19 09:32:29;;;;;;;3.20;1.20;;;;;;;28.51;32.11;98982.36;106420;1277;24759;-88
2022/07/19 09:35:03;;;;;;;4.50;1.50;;;;;;;28.59;31.84;98984.64;105875;1277;138138;-85
2022/07/19 09:37:32;;;;;;;2.90;1.60;;;;;;;28.59;31.95;98978.30;106831;1277;22559;-84
2022/07/19 09:40:05;;;;;;;6.10;1.50;;;;;;;28.66;32.48;98974.11;106739;1277;137425;-85
2022/07/19 09:42:46;;;;;;;6.50;1.40;;;;;;;28.82;32.78;98971.88;106373;1277;23033;-85
2022/07/19 09:45:20;;;;;;;4.30;1.40;;;;;;;28.93;31.48;98972.46;106527;1277;137937;-85
2022/07/19 09:47:50;;;;;;;2.20;1.20;;;;;;;28.96;31.03;98975.65;106852;1277;26021;-86
2022/07/19 09:50:21;;;;;;;4.80;1.40;;;;;;;28.98;30.57;98967.45;106363;1277;23551;-84
2022/07/19 09:52:51;;;;;;;4.90;1.80;;;;;;;28.94;30.97;98967.27;106315;1277;137679;-87
2022/07/19 09:55:19;;;;;;;6.10;1.30;;;;;;;28.89;30.78;98964.01;105903;1278;137988;-86
2022/07/19 09:57:51;;;;;;;3.50;1.40;;;;;;;28.93;31.52;98964.44;106516;1280;23360;-85
2022/07/19 10:00:21;;;;;;;4.60;1.40;;;;;;;28.92;31.05;98967.46;106100;1280;139742;-85
2022/07/19 10:02:51;;;;;;;6.40;1.60;;;;;;;28.94;31.77;98969.66;106285;1280;22595;-82
2022/07/19 10:05:18;;;;;;;6.60;1.90;;;;;;;29.07;30.81;98966.79;106133;1280;24370;-84
2022/07/19 10:07:47;;;;;;;3.90;1.50;;;;;;;29.24;30.33;98964.30;106325;1280;137630;-84
2022/07/19 10:10:18;;;;;;;3.60;1.30;;;;;;;29.47;29.96;98962.79;106211;1277;24230;-86
2022/07/19 10:13:02;;;;;;;3.60;1.60;;;;;;;29.83;29.71;98960.62;106121;1277;137598;-85
2022/07/19 10:15:49;;;;;;;2.60;1.60;;;;;;;30.29;29.25;98960.71;106565;1277;22574;-91
2022/07/19 10:18:23;;;;;;;4.30;1.70;;;;;;;30.59;28.50;98963.54;105857;1280;137673;-85
2022/07/19 10:20:51;;;;;;;3.10;1.80;;;;;;;30.72;27.60;98959.30;106069;1277;30325;-85
2022/07/19 10:23:31;;;;;;;2.90;1.60;;;;;;;30.80;27.69;98960.05;106418;1277;24379;-90
2022/07/19 10:25:58;;;;;;;5.90;2.00;;;;;;;30.87;28.45;98962.45;106010;1277;22545;-86
2022/07/19 10:28:42;;;;;;;7.60;1.90;;;;;;;30.92;28.45;98961.13;106258;1277;22547;-91
2022/07/19 10:31:27;;;;;;;4.90;1.80;;;;;;;30.94;28.67;98962.52;105869;1277;137784;-87
2022/07/19 10:34:00;;;;;;;5.70;2.00;;;;;;;31.09;29.24;98954.27;106173;1277;22604;-86
2022/07/19 10:36:47;;;;;;;7.30;2.00;;;;;;;31.15;29.11;98953.02;106211;1277;139183;-83
2022/07/19 10:39:18;;;;;;;3.30;1.60;;;;;;;31.22;28.69;98944.14;106223;1277;25401;-84
2022/07/19 10:42:13;;;;;;;5.30;2.20;;;;;;;31.35;28.75;98945.12;106377;1277;137634;-83
2022/07/19 10:44:54;;;;;;;5.00;2.10;;;;;;;31.52;29.22;98940.48;106222;1277;25314;-84
2022/07/19 10:47:38;;;;;;;3.80;1.90;;;;;;;31.66;28.96;98942.02;106252;1277;25309;-78
2022/07/19 10:50:21;;;;;;;3.90;2.20;;;;;;;31.75;28.76;98938.56;106098;1277;22540;-83
2022/07/19 10:52:48;;;;;;;6.60;2.20;;;;;;;31.82;29.57;98937.06;106314;1277;24266;-84
2022/07/19 10:55:16;;;;;;;6.10;1.90;;;;;;;31.75;29.76;98936.64;106398;1277;137472;-82
2022/07/19 10:57:52;;;;;;;3.90;1.90;;;;;;;31.57;28.96;98939.52;106279;1277;22547;-85
2022/07/19 11:00:21;;;;;;;3.50;2.20;;;;;;;31.38;29.21;98941.63;106124;1277;137928;-84
2022/07/19 11:02:50;;;;;;;4.90;2.10;;;;;;;31.22;29.86;98945.03;106538;1277;22541;-85
2022/07/19 11:05:25;;;;;;;3.90;2.00;;;;;;;31.15;30.31;98946.27;107323;1277;23416;-86
2022/07/19 11:07:54;;;;;;;4.30;2.10;;;;;;;31.18;29.77;98945.19;106403;1277;137418;-84
2022/07/19 11:10:28;;;;;;;6.40;1.70;;;;;;;31.26;29.19;98942.94;107097;1280;22532;-85
2022/07/19 11:12:57;;;;;;;7.90;2.60;;;;;;;31.24;29.34;98940.73;106478;1280;138984;-83
2022/07/19 11:15:28;;;;;;;6.70;2.00;;;;;;;31.20;29.17;98938.40;106598;1279;24353;-82
2022/07/19 11:17:58;;;;;;;8.10;2.10;;;;;;;31.20;29.54;98940.09;106829;1277;137590;-83
2022/07/19 11:20:28;;;;;;;4.40;2.20;;;;;;;31.21;29.03;98935.38;106856;1277;22706;-83
2022/07/19 11:22:57;;;;;;;4.10;1.90;;;;;;;31.34;28.77;98930.86;106824;1277;22573;-84
2022/07/19 11:25:27;;;;;;;5.20;2.00;;;;;;;31.43;28.67;98933.68;106718;1277;137591;-84
2022/07/19 11:27:57;;;;;;;3.30;2.00;;;;;;;31.57;28.55;98926.10;106912;1277;22582;-82
2022/07/19 11:30:27;;;;;;;4.40;1.90;;;;;;;31.66;27.66;98925.13;107034;1277;137506;-82
2022/07/19 11:33:08;;;;;;;4.30;2.10;;;;;;;31.66;27.94;98920.54;106681;1277;22677;-83
2022/07/19 11:35:38;;;;;;;3.50;2.20;;;;;;;31.73;28.25;98918.73;106799;1277;137718;-85
2022/07/19 11:38:07;;;;;;;5.10;2.20;;;;;;;31.87;28.32;98913.34;106833;1277;22676;-84
2022/07/19 11:40:38;;;;;;;4.50;1.80;;;;;;;31.93;28.04;98912.64;107130;1277;22723;-84